Time;durP1;ratioP1;P1;durP2;ratioP2;P2;SDS_P1;SDS_P2;PMS_P1;PMS_P2;Temp;Humidity;BMP_temperature;BMP_pressure;BME280_temperature;BME280_humidity;BME280_pressure;Samples;Min_cycle;Max_cycle;Signal;HPM_P1;HPM_P2
2023/03/15 06:53:30;;;;;;;2.65;1.50;;;;;;;;;;10561907;27;20311;-83
2023/03/15 06:58:31;;;;;;;2.38;1.83;;;;;;;;;;10561939;28;20029;-82
2023/03/15 07:03:32;;;;;;;4.55;2.60;;;;;;;;;;10562005;28;20409;-83
2023/03/15 07:08:40;;;;;;;2.08;1.30;;;;;;;;;;10562909;28;20108;-82
2023/03/15 07:13:41;;;;;;;2.03;1.30;;;;;;;;;;10558079;28;20021;-80
2023/03/15 07:18:42;;;;;;;6.00;1.88;;;;;;;;;;10559974;28;20040;-80
2023/03/15 07:23:43;;;;;;;;;;;;;;;;;;10557032;28;20037;-81
2023/03/15 07:28:47;;;;;;;3.67;1.83;;;;;;;;;;10557539;28;19912;-83
2023/03/15 07:34:04;;;;;;;4.10;2.22;;;;;;;;;;10560597;28;20028;-83
2023/03/15 07:39:05;;;;;;;3.00;1.70;;;;;;;;;;10556463;28;20048;-83
2023/03/15 07:44:23;;;;;;;5.03;2.83;;;;;;;;;;10538372;28;20032;-83
2023/03/15 07:49:25;;;;;;;3.45;1.30;;;;;;;;;;10556598;28;20040;-83
2023/03/15 07:54:44;;;;;;;3.63;2.10;;;;;;;;;;10553710;28;20113;-82
2023/03/15 08:00:22;;;;;;;4.13;2.38;;;;;;;;;;10561293;28;20107;-82
2023/03/15 08:05:25;;;;;;;4.15;1.92;;;;;;;;;;10526895;28;20063;-78
2023/03/15 08:10:26;;;;;;;3.63;1.80;;;;;;;;;;10511466;28;20063;-79
2023/03/15 08:15:27;;;;;;;5.70;3.30;;;;;;;;;;10523722;28;20062;-79
2023/03/15 08:20:28;;;;;;;4.28;3.42;;;;;;;;;;10526031;28;20051;-79
2023/03/15 08:25:30;;;;;;;6.93;4.55;;;;;;;;;;10529698;28;20070;-80
2023/03/15 08:30:31;;;;;;;6.35;4.47;;;;;;;;;;10528366;28;20021;-80
2023/03/15 08:35:33;;;;;;;;;;;;;;;;;;10528310;28;20021;-79
2023/03/15 08:40:34;;;;;;;5.70;4.38;;;;;;;;;;10523620;28;19904;-79
2023/03/15 08:45:35;;;;;;;;;;;;;;;;;;10519581;28;20081;-79
2023/03/15 08:50:36;;;;;;;4.30;3.38;;;;;;;;;;10514688;28;19908;-79
2023/03/15 08:55:37;;;;;;;;;;;;;;;;;;10512573;28;20055;-79
2023/03/15 09:00:38;;;;;;;6.40;4.63;;;;;;;;;;10530860;28;19919;-79
2023/03/15 09:05:40;;;;;;;6.13;4.60;;;;;;;;;;10533574;28;20096;-80
2023/03/15 09:10:41;;;;;;;6.07;3.83;;;;;;;;;;10543786;28;20029;-80
2023/03/15 09:15:42;;;;;;;;;;;;;;;;;;10531645;28;20004;-79
2023/03/15 09:20:43;;;;;;;3.92;2.80;;;;;;;;;;10517529;28;20247;-80
2023/03/15 09:25:44;;;;;;;4.00;2.80;;;;;;;;;;10517927;28;20025;-79
2023/03/15 09:30:45;;;;;;;;;;;;;;;;;;10519420;28;20067;-81
2023/03/15 09:35:46;;;;;;;3.88;2.65;;;;;;;;;;10520933;28;19983;-83
2023/03/15 09:40:47;;;;;;;6.03;3.35;;;;;;;;;;10521415;28;20505;-80
2023/03/15 09:45:48;;;;;;;4.57;2.72;;;;;;;;;;10521057;28;20508;-78
2023/03/15 09:50:54;;;;;;;4.30;2.45;;;;;;;;;;10520510;28;20356;-78
2023/03/15 09:55:55;;;;;;;6.05;3.63;;;;;;;;;;10527648;28;20025;-79
2023/03/15 10:00:57;;;;;;;6.25;3.03;;;;;;;;;;10521608;28;20032;-80
2023/03/15 10:06:00;;;;;;;6.20;2.28;;;;;;;;;;10528367;28;20032;-81
2023/03/15 10:11:20;;;;;;;5.50;2.58;;;;;;;;;;10526758;28;20059;-81
2023/03/15 10:16:53;;;;;;;3.22;1.85;;;;;;;;;;10527160;28;20024;-80
2023/03/15 10:21:55;;;;;;;3.90;2.47;;;;;;;;;;10504977;28;20484;-80
2023/03/15 10:26:58;;;;;;;5.22;2.50;;;;;;;;;;10522673;28;20048;-80
2023/03/15 10:31:59;;;;;;;4.10;1.75;;;;;;;;;;10512214;28;20024;-78
2023/03/15 10:37:00;;;;;;;4.25;1.80;;;;;;;;;;10524198;28;20031;-79
2023/03/15 10:42:02;;;;;;;2.88;1.67;;;;;;;;;;10522826;28;20078;-79
2023/03/15 10:47:16;;;;;;;4.22;2.60;;;;;;;;;;10521223;28;20036;-80
2023/03/15 10:52:35;;;;;;;5.07;2.78;;;;;;;;;;10522651;28;20017;-80
2023/03/15 10:57:38;;;;;;;6.20;3.42;;;;;;;;;;10522367;28;20028;-81
2023/03/15 11:02:48;;;;;;;5.20;3.92;;;;;;;;;;10521413;28;20398;-79
2023/03/15 11:07:57;;;;;;;5.35;3.25;;;;;;;;;;10521562;28;20465;-80
2023/03/15 11:13:16;;;;;;;5.10;3.80;;;;;;;;;;10520857;28;20054;-81
2023/03/15 11:18:19;;;;;;;6.40;3.72;;;;;;;;;;10523975;28;20024;-80
2023/03/15 11:23:24;;;;;;;5.10;2.60;;;;;;;;;;10529217;28;20028;-80
2023/03/15 11:28:27;;;;;;;4.50;2.70;;;;;;;;;;10525640;28;20084;-81
2023/03/15 11:33:38;;;;;;;4.93;2.50;;;;;;;;;;10525457;28;20021;-80
2023/03/15 11:38:44;;;;;;;5.57;2.33;;;;;;;;;;10529980;28;20025;-80
2023/03/15 11:43:57;;;;;;;4.43;1.65;;;;;;;;;;10529501;28;20040;-80
2023/03/15 11:49:01;;;;;;;4.50;2.85;;;;;;;;;;10520982;28;20123;-80
2023/03/15 11:54:03;;;;;;;3.42;1.70;;;;;;;;;;10529769;28;20036;-79
2023/03/15 11:59:04;;;;;;;3.97;1.33;;;;;;;;;;10527663;28;20025;-79
2023/03/15 12:04:24;;;;;;;15.07;11.82;;;;;;;;;;10527766;28;20054;-79
2023/03/15 12:09:45;;;;;;;4.18;1.30;;;;;;;;;;10527689;28;20489;-79
2023/03/15 12:14:46;;;;;;;5.82;1.90;;;;;;;;;;10526881;28;20016;-78
2023/03/15 12:19:47;;;;;;;3.60;1.40;;;;;;;;;;10524244;28;20048;-79
2023/03/15 12:24:48;;;;;;;3.85;1.30;;;;;;;;;;10527057;28;20498;-79
2023/03/15 12:29:58;;;;;;;3.08;1.25;;;;;;;;;;10526743;28;20060;-79
2023/03/15 12:35:12;;;;;;;1.90;1.10;;;;;;;;;;10528930;28;20028;-79
2023/03/15 12:40:21;;;;;;;2.45;1.35;;;;;;;;;;10456668;22;20155;-84
2023/03/15 12:45:38;;;;;;;13.02;7.88;;;;;;;;;;10429940;28;20036;-84
2023/03/15 12:50:46;;;;;;;2.60;1.50;;;;;;;;;;10387295;28;20029;-85
2023/03/15 12:56:23;;;;;;;3.63;1.30;;;;;;;;;;10387404;28;20026;-84
2023/03/15 13:01:27;;;;;;;2.45;1.38;;;;;;;;;;10380146;28;20040;-85
2023/03/15 13:06:45;;;;;;;2.65;1.40;;;;;;;;;;10387048;28;20025;-84
2023/03/15 13:12:07;;;;;;;3.42;1.10;;;;;;;;;;10384625;28;20026;-84
2023/03/15 13:17:32;;;;;;;2.13;1.00;;;;;;;;;;10383746;28;20387;-85
2023/03/15 13:23:14;;;;;;;2.50;1.00;;;;;;;;;;10388056;28;20030;-84
2023/03/15 13:28:22;;;;;;;2.65;1.10;;;;;;;;;;10299883;28;20023;-84
2023/03/15 13:33:31;;;;;;;3.17;1.55;;;;;;;;;;10364825;28;20030;-84
2023/03/15 13:38:33;;;;;;;1.70;1.10;;;;;;;;;;10384628;28;20480;-85
2023/03/15 13:43:38;;;;;;;1.95;0.73;;;;;;;;;;10382400;28;20029;-85
2023/03/15 13:48:41;;;;;;;2.95;1.80;;;;;;;;;;10382336;28;20025;-83
2023/03/15 13:53:42;;;;;;;2.80;1.10;;;;;;;;;;10379034;28;20025;-83
2023/03/15 13:58:43;;;;;;;2.58;1.30;;;;;;;;;;10390983;28;20048;-83
2023/03/15 14:03:48;;;;;;;3.05;1.20;;;;;;;;;;10404771;28;20053;-83
2023/03/15 14:08:53;;;;;;;3.33;0.90;;;;;;;;;;10408165;28;20032;-81
2023/03/15 14:13:58;;;;;;;7.38;4.30;;;;;;;;;;10406040;28;20022;-84
2023/03/15 14:19:17;;;;;;;4.13;1.30;;;;;;;;;;10404417;28;20022;-83
2023/03/15 14:24:27;;;;;;;3.05;1.20;;;;;;;;;;10401055;28;20030;-81
2023/03/15 14:29:32;;;;;;;2.67;1.40;;;;;;;;;;10392531;28;20044;-83
2023/03/15 14:34:46;;;;;;;10.18;6.05;;;;;;;;;;10378736;28;20072;-83
2023/03/15 14:39:47;;;;;;;2.55;1.17;;;;;;;;;;10378774;28;20073;-85
2023/03/15 14:44:48;;;;;;;3.45;1.70;;;;;;;;;;10384405;28;20068;-84
2023/03/15 14:49:49;;;;;;;2.15;1.10;;;;;;;;;;10380445;28;20096;-81
2023/03/15 14:54:50;;;;;;;2.25;1.30;;;;;;;;;;10380087;28;20125;-80
2023/03/15 14:59:51;;;;;;;2.67;1.10;;;;;;;;;;10378807;28;20129;-81
2023/03/15 15:05:21;;;;;;;2.75;1.20;;;;;;;;;;10380191;28;20029;-84
2023/03/15 15:16:13;;;;;;;4.68;1.27;;;;;;;;;;10385405;28;20038;-82
2023/03/15 15:27:36;;;;;;;1.95;0.93;;;;;;;;;;10385027;28;20030;-81
2023/03/15 15:33:11;;;;;;;3.40;1.10;;;;;;;;;;10383300;28;20044;-84
2023/03/15 15:38:39;;;;;;;2.83;1.40;;;;;;;;;;10378876;28;20034;-81
2023/03/15 15:49:05;;;;;;;2.45;1.00;;;;;;;;;;10382255;28;20038;-82
2023/03/15 15:54:09;;;;;;;3.60;1.40;;;;;;;;;;10388121;28;20041;-82
2023/03/15 15:59:19;;;;;;;3.10;1.10;;;;;;;;;;10384689;28;20077;-81
2023/03/15 16:04:27;;;;;;;2.83;1.70;;;;;;;;;;10384314;28;20511;-81
2023/03/15 16:09:57;;;;;;;2.88;1.38;;;;;;;;;;10384794;28;20073;-81
2023/03/15 16:20:18;;;;;;;3.00;1.50;;;;;;;;;;10372738;28;20034;-81
2023/03/15 16:25:28;;;;;;;3.10;2.20;;;;;;;;;;10370622;28;20022;-82
2023/03/15 16:30:31;;;;;;;4.88;1.30;;;;;;;;;;10373420;28;20034;-83
2023/03/15 16:35:39;;;;;;;2.35;1.30;;;;;;;;;;10370007;28;20038;-83
2023/03/15 16:40:41;;;;;;;2.55;1.10;;;;;;;;;;10368623;28;20026;-82
2023/03/15 16:45:44;;;;;;;3.67;1.20;;;;;;;;;;10371600;28;20026;-82
2023/03/15 16:50:47;;;;;;;4.38;1.60;;;;;;;;;;10370589;28;20036;-82
2023/03/15 16:55:48;;;;;;;3.58;1.25;;;;;;;;;;10367750;28;20572;-81
2023/03/15 17:01:21;;;;;;;2.25;1.25;;;;;;;;;;10367772;28;20061;-82
2023/03/15 17:06:27;;;;;;;2.22;1.20;;;;;;;;;;10234514;29;20039;-80
2023/03/15 17:11:28;;;;;;;3.35;1.20;;;;;;;;;;10239886;29;20039;-80
2023/03/15 17:16:39;;;;;;;3.30;1.65;;;;;;;;;;10224409;29;20046;-80
2023/03/15 17:21:41;;;;;;;3.00;1.17;;;;;;;;;;10241320;29;20375;-84
2023/03/15 17:38:33;;;;;;;3.67;1.30;;;;;;;;;;10259279;28;20050;-87
2023/03/15 17:55:57;;;;;;;2.78;1.63;;;;;;;;;;10177927;29;20036;-88
2023/03/15 18:18:23;;;;;;;3.95;1.85;;;;;;;;;;10022505;29;20030;-87
2023/03/15 18:40:38;;;;;;;3.40;1.40;;;;;;;;;;10540652;23;20040;-82
2023/03/15 18:45:40;;;;;;;2.70;1.50;;;;;;;;;;10548666;28;20028;-80
2023/03/15 18:50:43;;;;;;;3.00;1.60;;;;;;;;;;10550585;28;20054;-81
2023/03/15 18:55:44;;;;;;;4.35;2.22;;;;;;;;;;10559955;28;20028;-80
2023/03/15 19:00:47;;;;;;;1.92;1.50;;;;;;;;;;10571119;28;20366;-81
2023/03/15 19:05:48;;;;;;;3.05;1.60;;;;;;;;;;10544048;28;20047;-81
2023/03/15 19:10:56;;;;;;;3.30;1.77;;;;;;;;;;10544539;28;20087;-81
2023/03/15 19:15:58;;;;;;;3.75;2.20;;;;;;;;;;10550387;28;20036;-80
2023/03/15 19:20:59;;;;;;;3.35;1.77;;;;;;;;;;10578381;28;20012;-80
2023/03/15 19:26:00;;;;;;;2.78;1.70;;;;;;;;;;10577219;28;20044;-80
2023/03/15 19:31:02;;;;;;;2.92;1.77;;;;;;;;;;10578087;28;20028;-80
2023/03/15 19:36:03;;;;;;;4.38;2.20;;;;;;;;;;10570890;28;20021;-82
2023/03/15 19:41:05;;;;;;;3.03;1.92;;;;;;;;;;10552191;28;20124;-82
2023/03/15 19:46:06;;;;;;;5.28;2.42;;;;;;;;;;10556684;28;20077;-81
2023/03/15 19:51:08;;;;;;;2.75;1.63;;;;;;;;;;10550254;28;20111;-82
2023/03/15 19:56:09;;;;;;;5.03;2.53;;;;;;;;;;10547936;28;20020;-81
2023/03/15 20:01:10;;;;;;;6.93;3.22;;;;;;;;;;10580008;28;20024;-80
2023/03/15 20:06:12;;;;;;;3.92;1.63;;;;;;;;;;10574479;28;20020;-81
2023/03/15 20:11:23;;;;;;;3.95;2.65;;;;;;;;;;10557252;28;20489;-81
2023/03/15 20:16:25;;;;;;;5.10;1.98;;;;;;;;;;10547079;28;20032;-81
